Time;durP1;ratioP1;P1;durP2;ratioP2;P2;SDS_P1;SDS_P2;PMS_P1;PMS_P2;Temp;Humidity;BMP_temperature;BMP_pressure;BME280_temperature;BME280_humidity;BME280_pressure;Samples;Min_cycle;Max_cycle;Signal;HPM_P1;HPM_P2
2022/03/06 00:01:25;;;;;;;;;;;;;;;-0.15;100.00;102246.88;5228496;28;20420;-63
2022/03/06 00:03:56;;;;;;;;;;;;;;;-0.23;100.00;102249.44;5228349;28;19913;-63
2022/03/06 00:06:26;;;;;;;;;;;;;;;-0.26;100.00;102248.91;5228505;28;20284;-62
2022/03/06 00:08:56;;;;;;;;;;;;;;;-0.27;100.00;102248.06;5228539;28;19954;-61
2022/03/06 00:11:27;;;;;;;;;;;;;;;-0.28;100.00;102246.41;5228601;28;19935;-63
2022/03/06 00:13:57;;;;;;;;;;;;;;;-0.23;100.00;102240.66;5228226;28;19913;-62
2022/03/06 00:16:27;;;;;;;;;;;;;;;-0.22;100.00;102251.13;5228780;28;19913;-61
2022/03/06 00:18:57;;;;;;;;;;;;;;;-0.22;100.00;102247.63;5228507;28;19913;-61
2022/03/06 00:21:28;;;;;;;;;;;;;;;-0.24;100.00;102252.25;5228342;28;20369;-63
2022/03/06 00:23:58;;;;;;;;;;;;;;;-0.27;100.00;102253.38;5228256;28;19912;-62
2022/03/06 00:26:28;;;;;;;;;;;;;;;-0.25;100.00;102254.06;5228332;28;19977;-63
2022/03/06 00:28:59;;;;;;;;;;;;;;;-0.25;100.00;102254.06;5231756;28;19920;-63
2022/03/06 00:31:29;;;;;;;;;;;;;;;-0.29;100.00;102244.78;5232293;28;19919;-63
2022/03/06 00:34:00;;;;;;;;;;;;;;;-0.29;100.00;102257.22;5231814;28;19993;-62
2022/03/06 00:36:30;;;;;;;;;;;;;;;-0.36;100.00;102259.63;5232113;28;19912;-61
2022/03/06 00:39:00;;;;;;;;;;;;;;;-0.40;100.00;102258.25;5232020;28;19912;-62
2022/03/06 00:41:31;;;;;;;;;;;;;;;-0.43;100.00;102254.06;5249667;28;20007;-62
2022/03/06 00:44:01;;;;;;;;;;;;;;;-0.46;100.00;102258.84;5231477;28;20007;-62
2022/03/06 00:46:31;;;;;;;;;;;;;;;-0.50;100.00;102263.59;5231733;28;19919;-61
2022/03/06 00:49:02;;;;;;;;;;;;;;;-0.53;100.00;102258.59;5231921;28;19912;-62
2022/03/06 00:51:32;;;;;;;;;;;;;;;-0.53;100.00;102269.22;5231698;28;19995;-62
2022/03/06 00:54:02;;;;;;;;;;;;;;;-0.52;100.00;102272.69;5231563;28;19962;-62
2022/03/06 00:56:33;;;;;;;;;;;;;;;-0.61;100.00;102277.09;5231636;28;19918;-61
2022/03/06 00:59:03;;;;;;;;;;;;;;;-0.62;100.00;102275.44;5231622;28;19922;-61
2022/03/06 01:01:34;;;;;;;;;;;;;;;-0.66;100.00;102274.03;5231488;28;19990;-62
2022/03/06 01:04:04;;;;;;;;;;;;;;;-0.74;100.00;102279.25;5231391;28;19916;-61
2022/03/06 01:06:36;;;;;;;;;;;;;;;-0.74;100.00;102280.09;5249373;28;20282;-61
2022/03/06 01:09:06;;;;;;;;;;;;;;;-0.79;100.00;102279.69;5231352;28;19912;-61
2022/03/06 01:11:36;;;;;;;;;;;;;;;-0.77;100.00;102288.31;5231275;28;19912;-60
2022/03/06 01:14:06;;;;;;;;;;;;;;;-0.83;100.00;102286.25;5231245;28;19919;-60
2022/03/06 01:16:37;;;;;;;;;;;;;;;-0.83;100.00;102285.41;5231368;28;20284;-62
2022/03/06 01:19:07;;;;;;;;;;;;;;;-0.84;100.00;102289.88;5249118;28;19912;-62
2022/03/06 01:21:37;;;;;;;;;;;;;;;-0.81;100.00;102296.72;5231057;28;19924;-62
2022/03/06 01:24:08;;;;;;;;;;;;;;;-0.85;100.00;102292.69;5248879;28;19921;-60
2022/03/06 01:26:38;;;;;;;;;;;;;;;-0.90;100.00;102298.44;5231184;28;20377;-62
2022/03/06 01:29:08;;;;;;;;;;;;;;;-0.89;100.00;102292.16;5230955;28;19912;-61
2022/03/06 01:31:39;;;;;;;;;;;;;;;-0.95;100.00;102294.56;5231405;28;19912;-62
2022/03/06 01:34:09;;;;;;;;;;;;;;;-0.99;100.00;102288.72;5231349;28;19920;-60
2022/03/06 01:36:40;;;;;;;;;;;;;;;-1.01;100.00;102295.97;5231217;28;19912;-62
2022/03/06 01:39:10;;;;;;;;;;;;;;;-1.04;100.00;102306.88;5230407;28;20285;-60
2022/03/06 01:41:40;;;;;;;;;;;;;;;-1.02;100.00;102311.03;5248830;28;19916;-62
2022/03/06 01:44:12;;;;;;;;;;;;;;;-1.00;100.00;102299.47;5230681;28;19917;-61
2022/03/06 01:46:45;;;;;;;;;;;;;;;-1.02;100.00;102311.03;5230885;28;20396;-62
2022/03/06 01:49:15;;;;;;;;;;;;;;;-1.00;100.00;102310.91;5230874;28;19931;-62
2022/03/06 01:51:46;;;;;;;;;;;;;;;-1.05;100.00;102306.03;5230503;28;19916;-61
2022/03/06 01:54:16;;;;;;;;;;;;;;;-1.08;100.00;102303.66;5230276;28;19919;-62
2022/03/06 01:56:46;;;;;;;;;;;;;;;-1.11;100.00;102305.75;5230685;28;20189;-62
2022/03/06 01:59:18;;;;;;;;;;;;;;;-1.11;100.00;102313.72;5230507;28;19913;-61
2022/03/06 02:01:48;;;;;;;;;;;;;;;-1.11;100.00;102311.91;5230090;28;19916;-62
2022/03/06 02:04:18;;;;;;;;;;;;;;;-1.15;100.00;102310.50;5230160;28;19920;-61
2022/03/06 02:06:49;;;;;;;;;;;;;;;-1.19;100.00;102313.63;5239170;28;19959;-62
2022/03/06 02:09:19;;;;;;;;;;;;;;;-1.22;100.00;102311.25;5250966;28;19912;-62
2022/03/06 02:12:21;;;;;;;;;;;;;;;-1.22;100.00;102316.56;5268919;28;20287;-60
2022/03/06 02:14:40;;;;;;;;;;;;;;;-1.23;100.00;102307.75;5268431;28;19912;-62
2022/03/06 02:17:10;;;;;;;;;;;;;;;-1.24;100.00;102310.56;5250890;28;19949;-61
2022/03/06 02:19:54;;;;;;;;;;;;;;;-1.19;100.00;102313.63;5250771;28;19912;-62
2022/03/06 02:22:28;;;;;;;;;;;;;;;-1.18;100.00;102318.78;5250505;28;19920;-62
2022/03/06 02:24:59;;;;;;;;;;;;;;;-1.20;100.00;102312.78;5250592;28;19990;-61
2022/03/06 02:27:30;;;;;;;;;;;;;;;-1.30;100.00;102314.59;5250591;28;19912;-61
2022/03/06 02:30:02;;;;;;;;;;;;;;;-1.30;100.00;102314.59;5250639;28;19961;-61
2022/03/06 02:32:33;;;;;;;;;;;;;;;-1.31;100.00;102326.19;5250868;28;20279;-60
2022/03/06 02:35:04;;;;;;;;;;;;;;;-1.45;100.00;102308.94;5250567;28;19954;-62
2022/03/06 02:37:35;;;;;;;;;;;;;;;-1.38;100.00;102317.13;5250415;28;19912;-62
2022/03/06 02:40:07;;;;;;;;;;;;;;;-1.40;100.00;102322.56;5250389;28;19912;-62
2022/03/06 02:42:39;;;;;;;;;;;;;;;-1.39;100.00;102326.06;5250275;28;19916;-62
2022/03/06 02:45:13;;;;;;;;;;;;;;;-1.42;100.00;102334.28;5249959;28;19912;-61
2022/03/06 02:47:44;;;;;;;;;;;;;;;-1.38;100.00;102325.91;5250020;28;19970;-60
2022/03/06 02:50:16;;;;;;;;;;;;;;;-1.38;100.00;102335.69;5249808;28;20459;-62
2022/03/06 02:52:46;;;;;;;;;;;;;;;-1.33;100.00;102332.59;5249604;28;19972;-61
2022/03/06 02:55:17;;;;;;;;;;;;;;;-1.31;100.00;102342.09;5249884;28;19991;-62
2022/03/06 02:57:47;;;;;;;;;;;;;;;-1.27;100.00;102337.34;5249958;28;19966;-60
2022/03/06 03:00:19;;;;;;;;;;;;;;;-1.34;100.00;102333.59;5249682;28;20276;-59
2022/03/06 03:02:50;;;;;;;;;;;;;;;-1.36;100.00;102333.72;5249978;28;19998;-61
2022/03/06 03:05:20;;;;;;;;;;;;;;;-1.40;100.00;102333.16;5249731;28;19934;-62
2022/03/06 03:07:51;;;;;;;;;;;;;;;-1.37;100.00;102334.69;5250040;28;19912;-61
2022/03/06 03:10:22;;;;;;;;;;;;;;;-1.40;100.00;102333.16;5250059;28;20367;-61
2022/03/06 03:12:53;;;;;;;;;;;;;;;-1.41;100.00;102331.50;5249673;28;20303;-62
2022/03/06 03:15:24;;;;;;;;;;;;;;;-1.42;100.00;102344.88;5267657;28;20023;-61
2022/03/06 03:17:54;;;;;;;;;;;;;;;-1.43;100.00;102335.25;5249889;28;20383;-61
2022/03/06 03:20:24;;;;;;;;;;;;;;;-1.46;100.00;102332.91;5249709;28;19912;-62
2022/03/06 03:22:54;;;;;;;;;;;;;;;-1.48;100.00;102343.66;5250086;28;19912;-61
2022/03/06 03:25:25;;;;;;;;;;;;;;;-1.51;100.00;102345.75;5249462;28;19923;-62
2022/03/06 03:27:55;;;;;;;;;;;;;;;-1.64;100.00;102337.22;5249803;28;20374;-60
2022/03/06 03:30:25;;;;;;;;;;;;;;;-1.66;100.00;102337.38;5249688;28;19912;-62
2022/03/06 03:32:56;;;;;;;;;;;;;;;-1.67;100.00;102340.16;5249769;28;20562;-62
2022/03/06 03:35:26;;;;;;;;;;;;;;;-1.72;100.00;102330.81;5249407;28;20405;-60
2022/03/06 03:37:56;;;;;;;;;;;;;;;-1.71;100.00;102337.78;5249386;28;20369;-60
2022/03/06 03:40:27;;;;;;;;;;;;;;;-1.72;100.00;102340.56;5249667;28;19916;-60
2022/03/06 03:42:57;;;;;;;;;;;;;;;-1.80;100.00;102348.41;5249730;28;19973;-62
2022/03/06 03:45:27;;;;;;;;;;;;;;;-1.81;100.00;102338.78;5249323;28;20003;-61
2022/03/06 03:47:58;;;;;;;;;;;;;;;-1.91;100.00;102337.94;5249528;28;19920;-60
2022/03/06 03:50:28;;;;;;;;;;;;;;;-1.91;100.00;102337.94;5249187;28;19916;-61
2022/03/06 03:52:58;;;;;;;;;;;;;;;-1.89;100.00;102344.75;5249650;28;19918;-62
2022/03/06 03:55:29;;;;;;;;;;;;;;;-1.94;100.00;102339.03;5249342;28;19919;-61
2022/03/06 03:57:59;;;;;;;;;;;;;;;-1.91;100.00;102351.16;5249517;28;20191;-62
2022/03/06 04:00:29;;;;;;;;;;;;;;;-1.92;100.00;102349.50;5249349;28;19912;-62
2022/03/06 04:03:00;;;;;;;;;;;;;;;-1.91;100.00;102353.81;5251154;28;19912;-61
2022/03/06 04:05:30;;;;;;;;;;;;;;;-1.98;100.00;102356.16;5253283;28;20427;-61
2022/03/06 04:08:01;;;;;;;;;;;;;;;-2.01;100.00;102353.78;5271794;28;20003;-61
2022/03/06 04:10:31;;;;;;;;;;;;;;;-2.02;100.00;102353.97;5253635;28;20052;-61
2022/03/06 04:13:02;;;;;;;;;;;;;;;-1.99;100.00;102364.25;5253176;28;20326;-60
2022/03/06 04:15:32;;;;;;;;;;;;;;;-1.96;100.00;102369.25;5253215;28;20416;-60
2022/03/06 04:18:03;;;;;;;;;;;;;;;-2.01;100.00;102379.41;5253319;28;19935;-61
2022/03/06 04:20:33;;;;;;;;;;;;;;;-2.00;100.00;102373.16;5253119;28;20376;-61
2022/03/06 04:23:03;;;;;;;;;;;;;;;-2.05;100.00;102377.06;5253117;28;19916;-62
2022/03/06 04:25:34;;;;;;;;;;;;;;;-2.13;100.00;102376.06;5252857;28;19954;-60
2022/03/06 04:28:04;;;;;;;;;;;;;;;-2.15;100.00;102378.84;5253244;28;20292;-60
2022/03/06 04:30:35;;;;;;;;;;;;;;;-2.14;100.00;102385.81;5271235;28;19919;-61
2022/03/06 04:33:05;;;;;;;;;;;;;;;-2.16;100.00;102385.13;5252930;28;20410;-60
2022/03/06 04:35:35;;;;;;;;;;;;;;;-2.22;100.00;102398.88;5252620;28;19939;-59
2022/03/06 04:38:08;;;;;;;;;;;;;;;-2.25;100.00;102393.84;5253034;28;20310;-61
2022/03/06 04:40:39;;;;;;;;;;;;;;;-2.24;100.00;102406.13;5252787;28;20024;-61
2022/03/06 04:43:09;;;;;;;;;;;;;;;-2.23;100.00;102404.31;5252816;28;19994;-60
2022/03/06 04:45:40;;;;;;;;;;;;;;;-2.21;100.00;102405.84;5252637;28;19912;-62
2022/03/06 04:48:10;;;;;;;;;;;;;;;-2.20;100.00;102420.75;5252663;28;20318;-62
2022/03/06 04:50:40;;;;;;;;;;;;;;;-2.13;100.00;102413.13;5252875;28;19916;-62
2022/03/06 04:53:10;;;;;;;;;;;;;;;-2.12;100.00;102415.63;5270600;28;19923;-61
2022/03/06 04:55:41;;;;;;;;;;;;;;;-2.08;100.00;102416.22;5252521;28;19935;-62
2022/03/06 04:58:11;;;;;;;;;;;;;;;-2.10;100.00;102421.63;5270523;28;19950;-61
2022/03/06 05:00:41;;;;;;;;;;;;;;;-2.07;100.00;102423.19;5252183;28;19969;-62
2022/03/06 05:03:12;;;;;;;;;;;;;;;-2.14;100.00;102422.88;5270590;28;19916;-61
2022/03/06 05:05:42;;;;;;;;;;;;;;;-2.18;100.00;102425.91;5252225;28;20300;-62
2022/03/06 05:08:12;;;;;;;;;;;;;;;-2.17;100.00;102424.94;5252297;28;20019;-62
2022/03/06 05:10:42;;;;;;;;;;;;;;;-2.12;100.00;102430.69;5252061;28;19927;-62
2022/03/06 05:13:13;;;;;;;;;;;;;;;-2.15;100.00;102430.94;5251864;28;20484;-62
2022/03/06 05:15:43;;;;;;;;;;;;;;;-2.21;100.00;102426.19;5251098;28;19959;-62
2022/03/06 05:18:14;;;;;;;;;;;;;;;-2.27;100.00;102424.06;5252144;28;19916;-62
2022/03/06 05:20:44;;;;;;;;;;;;;;;-2.32;100.00;102432.44;5251915;28;19916;-62
2022/03/06 05:23:16;;;;;;;;;;;;;;;-2.28;100.00;102438.25;5251970;28;20384;-60
2022/03/06 05:25:46;;;;;;;;;;;;;;;-2.28;100.00;102441.75;5251865;28;20371;-60
2022/03/06 05:28:16;;;;;;;;;;;;;;;-2.29;100.00;102441.88;5251970;28;19912;-61
2022/03/06 05:30:47;;;;;;;;;;;;;;;-2.38;100.00;102436.44;5251736;28;20011;-61
2022/03/06 05:33:17;;;;;;;;;;;;;;;-2.35;100.00;102445.91;5269561;28;19916;-61
2022/03/06 05:35:48;;;;;;;;;;;;;;;-2.34;100.00;102447.59;5251471;28;20295;-62
2022/03/06 05:38:18;;;;;;;;;;;;;;;-2.38;100.00;102457.59;5251799;28;19912;-60
2022/03/06 05:40:48;;;;;;;;;;;;;;;-2.36;100.00;102454.00;5252571;28;20329;-61
2022/03/06 05:43:19;;;;;;;;;;;;;;;-2.38;100.00;102464.69;5251622;28;19916;-60
2022/03/06 05:45:50;;;;;;;;;;;;;;;-2.42;100.00;102461.47;5251222;28;19962;-61
2022/03/06 05:48:21;;;;;;;;;;;;;;;-2.42;100.00;102469.41;5251516;28;19912;-61
2022/03/06 05:50:51;;;;;;;;;;;;;;;-2.43;100.00;102459.81;5264799;22;19959;-64
2022/03/06 05:53:22;;;;;;;;;;;;;;;-2.47;100.00;102461.03;5240347;28;19994;-64
2022/03/06 05:55:53;;;;;;;;;;;;;;;-2.98;100.00;102391.44;5231055;28;19959;-65
2022/03/06 05:58:23;;;;;;;;;;;;;;;-2.46;100.00;102475.09;5231011;28;19912;-66
2022/03/06 06:00:53;;;;;;;;;;;;;;;-2.39;100.00;102473.59;5230656;28;20295;-63
2022/03/06 06:03:25;;;;;;;;;;;;;;;-2.43;100.00;102480.97;5230474;28;19991;-64
2022/03/06 06:05:55;;;;;;;;;;;;;;;-2.49;100.00;102512.38;5230548;28;19913;-64
2022/03/06 06:08:25;;;;;;;;;;;;;;;-2.55;100.00;102481.16;5230948;28;19920;-64
2022/03/06 06:10:56;;;;;;;;;;;;;;;-2.54;100.00;102491.59;5230692;28;19919;-65
2022/03/06 06:13:26;;;;;;;;;;;;;;;-2.53;100.00;102497.75;5230266;28;19913;-64
2022/03/06 06:15:57;;;;;;;;;;;;;;;-2.49;100.00;102496.50;5230380;28;19919;-64
2022/03/06 06:18:30;;;;;;;;;;;;;;;-2.47;100.00;102494.56;5230359;28;19919;-64
2022/03/06 06:21:01;;;;;;;;;;;;;;;-2.39;100.00;102503.53;5230267;28;20323;-64
2022/03/06 06:23:31;;;;;;;;;;;;;;;-2.41;100.00;102505.47;5247985;28;19927;-65
2022/03/06 06:26:02;;;;;;;;;;;;;;;-2.41;100.00;102504.63;5230407;28;19979;-64
2022/03/06 06:28:32;;;;;;;;;;;;;;;-2.48;100.00;102511.41;5230154;28;20323;-64
2022/03/06 06:31:04;;;;;;;;;;;;;;;-2.53;100.00;102503.03;5230159;28;19920;-64
2022/03/06 06:33:35;;;;;;;;;;;;;;;-2.56;100.00;102505.94;5229941;28;19916;-64
2022/03/06 06:36:06;;;;;;;;;;;;;;;-2.54;100.00;102519.88;5230380;28;19913;-63
2022/03/06 06:38:36;;;;;;;;;;;;;;;-2.52;100.00;102512.63;5230138;28;19913;-64
2022/03/06 06:41:06;;;;;;;;;;;;;;;-2.52;100.00;102526.69;5230186;28;19947;-64
2022/03/06 06:43:37;;;;;;;;;;;;;;;-3.17;100.00;102406.19;5229686;28;20376;-64
2022/03/06 06:46:07;;;;;;;;;;;;;;;-2.50;100.00;102521.28;5229996;28;20000;-63
2022/03/06 06:48:37;;;;;;;;;;;;;;;-2.42;100.00;102524.13;5230042;28;19912;-64
2022/03/06 06:51:08;;;;;;;;;;;;;;;-2.38;100.00;102521.09;5229833;28;20399;-65
2022/03/06 06:53:39;;;;;;;;;;;;;;;-2.34;100.00;102520.84;5229625;28;19964;-65
2022/03/06 06:56:09;;;;;;;;;;;;;;;-2.31;100.00;102526.69;5229829;28;19923;-65
2022/03/06 06:58:39;;;;;;;;;;;;;;;-2.28;100.00;102526.41;5229820;28;19924;-64
2022/03/06 07:01:10;;;;;;;;;;;;;;;-2.28;100.00;102531.72;5229577;28;20418;-64
2022/03/06 07:03:40;;;;;;;;;;;;;;;-2.25;100.00;102528.81;5229285;28;19913;-64
2022/03/06 07:06:10;;;;;;;;;;;;;;;-2.18;100.00;102535.25;5229687;28;20330;-64
2022/03/06 07:08:41;;;;;;;;;;;;;;;-2.18;100.00;102531.78;5229554;28;19959;-64
2022/03/06 07:11:11;;;;;;;;;;;;;;;-2.15;100.00;102537.66;5230007;28;19916;-63
2022/03/06 07:13:41;;;;;;;;;;;;;;;-2.11;100.00;102539.06;5247557;28;20395;-65
2022/03/06 07:16:11;;;;;;;;;;;;;;;-2.03;100.00;102545.50;5229650;28;19964;-63
2022/03/06 07:18:42;;;;;;;;;;;;;;;-1.96;100.00;102543.97;5229163;28;20277;-64
2022/03/06 07:21:12;;;;;;;;;;;;;;;-1.93;100.00;102547.22;5229247;28;20438;-64
2022/03/06 07:23:42;;;;;;;;;;;;;;;-1.89;100.00;102551.28;5229089;28;19920;-63
2022/03/06 07:26:12;;;;;;;;;;;;;;;-1.81;100.00;102547.97;5229397;28;20368;-63
2022/03/06 07:28:43;;;;;;;;;;;;;;;-1.78;100.00;102556.47;5229181;28;19913;-65
2022/03/06 07:31:14;;;;;;;;;;;;;;;-1.74;100.00;102547.31;5246959;28;20319;-64
2022/03/06 07:33:44;;;;;;;;;;;;;;;-1.67;100.00;102554.69;5228900;28;19913;-64
2022/03/06 07:36:15;;;;;;;;;;;;;;;-1.63;100.00;102562.22;5229349;28;20257;-64
2022/03/06 07:38:45;;;;;;;;;;;;;;;-1.57;100.00;102559.06;5228678;28;19917;-63
2022/03/06 07:41:17;;;;;;;;;;;;;;;-1.52;100.00;102564.78;5228938;28;20017;-65
2022/03/06 07:43:47;;;;;;;;;;;;;;;-1.47;100.00;102567.88;5228866;28;19962;-66
2022/03/06 07:46:17;;;;;;;;;;;;;;;-1.43;100.00;102569.25;5229001;28;19920;-67
2022/03/06 07:48:48;;;;;;;;;;;;;;;-1.37;100.00;102576.66;5229642;28;19917;-66
2022/03/06 07:51:19;;;;;;;;;;;;;;;-1.30;100.00;102576.97;5228954;28;19916;-66
2022/03/06 07:53:49;;;;;;;;;;;;;;;-1.25;100.00;102573.91;5229081;28;19951;-66
2022/03/06 07:56:19;;;;;;;;;;;;;;;-1.16;100.00;102576.59;5229137;28;20287;-66
2022/03/06 07:58:50;;;;;;;;;;;;;;;-1.11;100.00;102581.44;5229229;28;19912;-65
2022/03/06 08:01:20;;;;;;;;;;;;;;;-1.05;100.00;102580.91;5229102;28;19917;-66
2022/03/06 08:03:50;;;;;;;;;;;;;;;-1.00;100.00;102589.28;5228913;28;19958;-66
2022/03/06 08:06:22;;;;;;;;;;;;;;;-0.92;100.00;102594.75;5228848;28;20265;-65
2022/03/06 08:08:53;;;;;;;;;;;;;;;-0.86;100.00;102598.63;5228933;28;20007;-65
2022/03/06 08:11:23;;;;;;;;;;;;;;;-0.79;100.00;102600.59;5228805;28;20029;-64
2022/03/06 08:13:54;;;;;;;;;;;;;;;-0.72;100.00;102599.09;5228550;28;20360;-64
2022/03/06 08:16:24;;;;;;;;;;;;;;;-0.63;100.00;102601.88;5228954;28;20277;-65
2022/03/06 08:18:54;;;;;;;;;;;;;;;-0.57;100.00;102603.94;5246754;28;19916;-65
2022/03/06 08:21:24;;;;;;;;;;;;;;;-0.51;100.00;102598.09;5229051;28;19924;-71
2022/03/06 08:23:55;;;;;;;;;;;;;;;-0.45;100.00;102595.72;5228904;28;20328;-66
2022/03/06 08:26:25;;;;;;;;;;;;;;;-0.35;100.00;102609.81;5229013;28;20069;-66
2022/03/06 08:28:55;;;;;;;;;;;;;;;-0.24;100.00;102608.81;5228871;28;19920;-66
2022/03/06 08:31:26;;;;;;;;;;;;;;;-0.19;100.00;102617.19;5228821;28;20347;-65
2022/03/06 08:33:56;;;;;;;;;;;;;;;-0.10;100.00;102608.38;5246551;28;20014;-65
2022/03/06 08:36:27;;;;;;;;;;;;;;;-0.01;100.00;102623.47;5228896;28;19913;-71
2022/03/06 08:38:57;;;;;;;;;;;;;;;0.03;100.00;102615.19;5228549;28;20011;-66
2022/03/06 08:41:27;;;;;;;;;;;;;;;0.10;100.00;102621.59;5228905;28;19923;-65
2022/03/06 08:43:58;;;;;;;;;;;;;;;0.17;100.00;102620.88;5246228;28;19955;-65
2022/03/06 08:46:28;;;;;;;;;;;;;;;0.29;100.00;102629.50;5228626;28;19912;-66
2022/03/06 08:48:59;;;;;;;;;;;;;;;0.36;100.00;102621.78;5228890;28;19913;-66
2022/03/06 08:51:29;;;;;;;;;;;;;;;0.40;100.00;102629.31;5232188;28;19969;-64
2022/03/06 08:54:00;;;;;;;;;;;;;;;0.48;100.00;102625.94;5231909;28;19923;-66
2022/03/06 08:56:30;;;;;;;;;;;;;;;0.58;100.00;102618.75;5232577;28;20387;-65
2022/03/06 08:59:01;;;;;;;;;;;;;;;0.60;100.00;102628.25;5232223;28;19936;-65
2022/03/06 09:01:31;;;;;;;;;;;;;;;0.61;100.00;102623.78;5250296;28;20002;-65
2022/03/06 09:04:01;;;;;;;;;;;;;;;0.72;100.00;102628.06;5231698;28;19912;-65
2022/03/06 09:06:32;;;;;;;;;;;;;;;0.78;100.00;102630.13;5231899;28;19916;-66
2022/03/06 09:09:02;;;;;;;;;;;;;;;0.88;100.00;102633.56;5231916;28;20308;-65
2022/03/06 09:11:33;;;;;;;;;;;;;;;1.01;100.00;102642.03;5231704;28;19916;-66
2022/03/06 09:14:03;;;;;;;;;;;;;;;1.15;100.00;102630.91;5231487;28;20407;-67
2022/03/06 09:16:33;;;;;;;;;;;;;;;1.25;100.00;102626.31;5231851;28;20323;-66
2022/03/06 09:19:04;;;;;;;;;;;;;;;1.29;100.00;102633.00;5231712;28;19919;-65
2022/03/06 09:21:34;;;;;;;;;;;;;;;1.37;100.00;102632.25;5231735;28;20009;-64
2022/03/06 09:24:05;;;;;;;;;;;;;;;1.51;100.00;102636.19;5231438;28;20348;-64
2022/03/06 09:26:35;;;;;;;;;;;;;;;1.65;100.00;102638.34;5231521;28;19919;-63
2022/03/06 09:29:06;;;;;;;;;;;;;;;1.81;100.00;102637.63;5231471;28;19912;-63
2022/03/06 09:31:36;;;;;;;;;;;;;;;1.96;100.00;102630.75;5249303;28;20245;-64
2022/03/06 09:34:07;;;;;;;;;;;;;;;2.11;100.00;102639.81;5231108;28;19913;-62
2022/03/06 09:36:37;;;;;;;;;;;;;;;2.17;100.00;102633.88;5231423;28;19999;-64
2022/03/06 09:39:07;;;;;;;;;;;;;;;2.33;100.00;102630.47;5249254;28;19919;-65
2022/03/06 09:41:38;;;;;;;;;;;;;;;2.45;100.00;102628.38;5231077;28;19916;-64
2022/03/06 09:44:09;;;;;;;;;;;;;;;2.61;100.00;102629.25;5230885;28;19992;-64
2022/03/06 09:46:40;;;;;;;;;;;;;;;2.69;100.00;102621.28;5231072;28;20023;-64
2022/03/06 09:49:11;;;;;;;;;;;;;;;2.86;100.00;102627.53;5231060;28;19978;-64
2022/03/06 09:51:41;;;;;;;;;;;;;;;2.99;100.00;102622.56;5230692;28;19916;-64
2022/03/06 09:54:12;;;;;;;;;;;;;;;3.09;100.00;102619.75;5230507;28;19959;-64
2022/03/06 09:56:43;;;;;;;;;;;;;;;3.20;100.00;102618.59;5230357;28;19978;-64
2022/03/06 09:59:14;;;;;;;;;;;;;;;3.23;100.00;102621.78;5230920;28;19919;-64
2022/03/06 10:01:44;;;;;;;;;;;;;;;3.35;100.00;102627.63;5230197;28;19921;-64
2022/03/06 10:04:21;;;;;;;;;;;;;;;3.34;100.00;102624.13;5248339;28;19912;-64
2022/03/06 10:07:11;;;;;;;;;;;;;;;3.42;100.00;102627.81;5230454;28;19912;-64
2022/03/06 10:09:46;;;;;;;;;;;;;;;3.54;100.00;102624.63;5230123;28;19912;-65
2022/03/06 10:12:24;;;;;;;;;;;;;;;3.65;100.00;102607.47;5248125;28;19919;-65
2022/03/06 10:14:56;;;;;;;;;;;;;;;3.81;100.00;102612.78;5230244;28;19962;-65
2022/03/06 10:17:28;;;;;;;;;;;;;;;4.02;100.00;102599.72;5230297;28;19912;-64
2022/03/06 10:20:00;;;;;;;;;;;;;;;4.22;100.00;102610.88;5230179;28;20372;-65
2022/03/06 10:22:34;;;;;;;;;;;;;;;4.41;100.00;102606.97;5229794;28;19966;-64
2022/03/06 10:25:04;;;;;;;;;;;;;;;4.47;100.00;102610.78;5230080;28;20372;-64
2022/03/06 10:28:02;;;;;;;;;;;;;;;4.44;100.00;102613.81;5230278;28;19919;-64
2022/03/06 10:30:34;;;;;;;;;;;;;;;4.61;100.00;102618.94;5226600;28;19966;-65
2022/03/06 10:33:07;;;;;;;;;;;;;;;4.73;100.00;102604.16;5230043;28;19920;-64
2022/03/06 10:35:39;;;;;;;;;;;;;;;4.79;100.00;102626.72;5229802;28;19919;-65
2022/03/06 10:38:29;;;;;;;;;;;;;;;4.81;100.00;102623.88;5229904;28;19912;-64
2022/03/06 10:40:59;;;;;;;;;;;;;;;4.78;100.00;102616.19;5229855;28;19916;-63
2022/03/06 10:43:32;;;;;;;;;;;;;;;4.80;100.00;102617.69;5229439;28;19923;-64
2022/03/06 10:46:10;;;;;;;;;;;;;;;4.48;100.00;102575.00;5229803;28;20325;-63
2022/03/06 10:48:41;;;;;;;;;;;;;;;4.96;100.00;102624.78;5229536;28;19916;-64
2022/03/06 10:51:13;;;;;;;;;;;;;;;4.84;100.00;102620.84;5247670;28;19920;-64
2022/03/06 10:53:43;;;;;;;;;;;;;;;4.96;100.00;102624.78;5229388;28;19919;-63
2022/03/06 10:56:15;;;;;;;;;;;;;;;5.16;99.12;102617.16;5229628;28;19912;-63
2022/03/06 10:58:46;;;;;;;;;;;;;;;5.19;100.00;102611.44;5229649;28;20006;-64
2022/03/06 11:01:17;;;;;;;;;;;;;;;5.29;98.31;102620.91;5229696;28;20387;-63
2022/03/06 11:03:49;;;;;;;;;;;;;;;5.30;96.18;102617.19;5229168;28;19912;-64
2022/03/06 11:06:20;;;;;;;;;;;;;;;5.24;95.37;102625.09;5229687;28;20376;-64
2022/03/06 11:08:51;;;;;;;;;;;;;;;5.26;93.90;102621.25;5229545;28;19913;-64
2022/03/06 11:11:21;;;;;;;;;;;;;;;5.26;93.47;102618.56;5229013;28;20265;-64
2022/03/06 11:13:55;;;;;;;;;;;;;;;5.34;93.55;102621.19;5246688;28;20296;-64
2022/03/06 11:16:26;;;;;;;;;;;;;;;5.38;93.39;102616.31;5229284;28;19912;-64
2022/03/06 11:18:57;;;;;;;;;;;;;;;5.49;94.66;102612.38;5229129;28;19927;-64
2022/03/06 11:21:28;;;;;;;;;;;;;;;5.49;93.95;102617.72;5229272;28;20335;-64
2022/03/06 11:23:59;;;;;;;;;;;;;;;5.56;92.99;102616.00;5228900;28;20003;-65
2022/03/06 11:26:48;;;;;;;;;;;;;;;5.64;94.48;102605.22;5228976;28;20409;-63
2022/03/06 11:29:25;;;;;;;;;;;;;;;5.82;92.66;102602.19;5229031;28;20089;-64
2022/03/06 11:31:58;;;;;;;;;;;;;;;5.80;91.69;102602.38;5228965;28;19955;-65
2022/03/06 11:34:35;;;;;;;;;;;;;;;5.94;91.31;102601.63;5228821;28;20376;-65
2022/03/06 11:37:10;;;;;;;;;;;;;;;5.98;90.65;102599.41;5229093;28;19920;-66
2022/03/06 11:39:40;;;;;;;;;;;;;;;5.89;87.21;102598.66;5228544;28;19912;-64
2022/03/06 11:42:31;;;;;;;;;;;;;;;5.93;87.66;102599.97;5228446;28;19927;-63
2022/03/06 11:45:01;;;;;;;;;;;;;;;5.93;86.70;102594.59;5228512;28;20272;-66
2022/03/06 11:47:39;;;;;;;;;;;;;;;5.92;87.28;102584.06;5229033;28;19919;-63
2022/03/06 11:53:18;;;;;;;;;;;;;;;6.17;88.09;102584.63;5294856;28;19975;-63
2022/03/06 11:55:49;;;;;;;;;;;;;;;6.12;85.76;102593.22;5268086;28;19920;-65
2022/03/06 11:58:39;;;;;;;;;;;;;;;6.13;86.00;102586.00;5249552;28;19961;-63
2022/03/06 12:01:24;;;;;;;;;;;;;;;5.96;86.11;102580.81;5267533;28;20007;-63
2022/03/06 12:03:55;;;;;;;;;;;;;;;5.91;85.49;102580.53;5249561;28;19912;-63
2022/03/06 12:06:26;;;;;;;;;;;;;;;5.99;87.51;102580.47;5249660;28;20037;-63
2022/03/06 12:08:56;;;;;;;;;;;;;;;6.17;86.00;102577.41;5249688;28;20343;-63
2022/03/06 12:11:30;;;;;;;;;;;;;;;6.35;86.10;102574.38;5250187;28;19916;-63
2022/03/06 12:14:27;;;;;;;;;;;;;;;6.52;85.92;102573.13;5250027;28;20356;-61
2022/03/06 12:17:04;;;;;;;;;;;;;;;6.90;85.31;102570.28;5264398;28;19934;-63
2022/03/06 12:19:44;;;;;;;;;;;;;;;6.71;81.97;102566.34;5249076;28;19912;-63
2022/03/06 12:22:14;;;;;;;;;;;;;;;6.57;80.92;102570.72;5249296;28;19916;-64
2022/03/06 12:24:48;;;;;;;;;;;;;;;6.61;80.34;102571.19;5252267;28;20236;-63
2022/03/06 12:27:20;;;;;;;;;;;;;;;6.44;82.73;102567.88;5271924;28;19916;-64
2022/03/06 12:29:53;;;;;;;;;;;;;;;6.59;85.70;102560.63;5253560;28;20394;-64
2022/03/06 12:32:27;;;;;;;;;;;;;;;6.91;85.34;102551.31;5253312;28;20434;-64
2022/03/06 12:35:06;;;;;;;;;;;;;;;7.04;83.20;102556.78;5260081;28;20393;-64
2022/03/06 12:37:51;;;;;;;;;;;;;;;7.21;82.75;102554.69;5307839;27;19934;-64
2022/03/06 12:40:23;;;;;;;;;;;;;;;6.91;80.11;102550.47;5274290;28;19919;-64
2022/03/06 12:43:04;;;;;;;;;;;;;;;6.60;82.17;102556.09;5308039;27;19972;-65
2022/03/06 12:45:36;;;;;;;;;;;;;;;6.67;82.98;102565.88;5307467;27;19934;-63
2022/03/06 12:48:06;;;;;;;;;;;;;;;6.80;82.63;102548.28;5304952;27;19911;-62
2022/03/06 12:50:41;;;;;;;;;;;;;;;7.10;81.17;102549.84;5292032;28;19957;-62
2022/03/06 12:53:14;;;;;;;;;;;;;;;7.27;80.98;102537.78;5301579;27;20387;-62
2022/03/06 12:55:45;;;;;;;;;;;;;;;7.35;81.04;102545.72;5290928;28;19919;-61